Aeroporto :
LOGIN :

Iscrizione | Disclaimer

   EN    FR    IT 

 










Sommario :    VFR   VFR Marginale   IFR   IFR Intensivo   IFR Molto Intensivo
Visibilità : 
Base nubi : 
>= 8 km
>= 3000ft
5 / 8 km
1000 / 3000 ft
1500m / 5 km
500 / 1000 ft
800 / 1500m
200 / 500 ft
< 800m
< 200 ft
Simboli :   Temporali  Nebbia  Neve Forte  Precipitazioni Forti  Vento > 20 kt
SIGMETs :   Varie  Temporali  Ghiacco  Turbolenza  Onda orograficha  Ceneri Vulcaniche







- Altitudine del aeroporto : 505 ft
- Codice IATA : SXB
- Carte del aeroporto


LFST - Strasbourg

ULTIMO METAR :
  • 211700Z AUTO VRB02KT CAVOK 12/05 Q1028 NOSIG

METARs OBSOLETI :
  • 211630Z AUTO 04003KT CAVOK 14/05 Q1028 NOSIG
  • 211600Z AUTO 04003KT CAVOK 15/05 Q1028 NOSIG
  • 211530Z AUTO VRB02KT CAVOK 15/05 Q1028 NOSIG
  • 211500Z AUTO VRB02KT CAVOK 16/06 Q1028 NOSIG
  • 211430Z AUTO VRB03KT CAVOK 16/05 Q1028 NOSIG

TAF TAF LFST
Valido dal 21 a 12 ore il 22 a 12 ore UTC


211100Z 2112/2212 13004KT CAVOK
BECMG 2200/2203 6000 BKN040
PROB30
TEMPO 2122/2202 4000 BR
PROB40
TEMPO 2202/2212 3000 -DZRA BR BKN010
Nessun NOTAM noto per questo aeroporto.



MetMap, La meteo Aeronautica in un colpo d'occhio ! - Copyright ORBIFLY Dicembre 2007 - Disclaimer

ORBIFLY MET'MAP TEAM :

Programmazione e sviluppo : Alexandra Zaïnal
Concezione e sviluppo : Baudouin d'Aumeries
Co-Programmazione e sviluppo : Marc-Olivier Méhu
Supporto tecnico e logistico : Manuel Goepfert
Aiuto per la traduzione : Arnaldo La Scala

Contatto : metmap@orbifly.com




FONTI E CREDITI :

   NOAA